Terminal Aerodrome Forecast
Issued by NWS

Home | Current Version | Previous Version | Text Only | Print | Product List | Glossary Off
Versions: 1 2 3 4 5 6 7 8 9 10 11 12 13 14 15

721
FTUS43 KBIS 201730
TAFJMS
TAF
KJMS 201730Z 2018/2118 15011KT P6SM FEW080 FEW250
     FM202100 18013KT P6SM FEW100 FEW250
     FM210100 15010KT P6SM FEW100 SCT250
     FM210600 15008KT P6SM VCTS FEW110CB SCT250
     FM211200 13007KT P6SM SCT090 BKN250=

USA.gov is the U.S. government's official web portal to all federal, state and local government web resources and services.